sensor_id;sensor_type;location;lat;lon;timestamp;P1;durP1;ratioP1;P2;durP2;ratioP2
33268;SDS011;19640;50.944;5.260;2022-11-15T00:00:48;16.55;;;12.85;;
33268;SDS011;19640;50.944;5.260;2022-11-15T00:03:15;15.50;;;13.07;;
33268;SDS011;19640;50.944;5.260;2022-11-15T00:05:50;16.83;;;12.43;;
33268;SDS011;19640;50.944;5.260;2022-11-15T00:08:16;14.05;;;11.98;;
33268;SDS011;19640;50.944;5.260;2022-11-15T00:10:42;17.42;;;12.00;;
33268;SDS011;19640;50.944;5.260;2022-11-15T00:13:08;17.45;;;12.60;;
33268;SDS011;19640;50.944;5.260;2022-11-15T00:15:39;16.58;;;11.48;;
33268;SDS011;19640;50.944;5.260;2022-11-15T00:18:06;13.77;;;10.65;;
33268;SDS011;19640;50.944;5.260;2022-11-15T00:20:37;14.60;;;11.60;;
33268;SDS011;19640;50.944;5.260;2022-11-15T00:23:03;14.98;;;11.82;;
33268;SDS011;19640;50.944;5.260;2022-11-15T00:25:29;13.70;;;11.05;;
33268;SDS011;19640;50.944;5.260;2022-11-15T00:27:55;12.13;;;10.75;;
33268;SDS011;19640;50.944;5.260;2022-11-15T00:30:21;16.80;;;11.60;;
33268;SDS011;19640;50.944;5.260;2022-11-15T00:32:47;16.10;;;10.57;;
33268;SDS011;19640;50.944;5.260;2022-11-15T00:35:13;12.60;;;10.98;;
33268;SDS011;19640;50.944;5.260;2022-11-15T00:37:39;16.58;;;11.38;;
33268;SDS011;19640;50.944;5.260;2022-11-15T00:40:04;19.95;;;11.70;;
33268;SDS011;19640;50.944;5.260;2022-11-15T00:42:31;15.05;;;11.00;;
33268;SDS011;19640;50.944;5.260;2022-11-15T00:44:56;12.32;;;11.02;;
33268;SDS011;19640;50.944;5.260;2022-11-15T00:47:22;15.73;;;11.15;;
33268;SDS011;19640;50.944;5.260;2022-11-15T00:49:47;15.57;;;11.02;;
33268;SDS011;19640;50.944;5.260;2022-11-15T00:52:13;13.43;;;10.98;;
33268;SDS011;19640;50.944;5.260;2022-11-15T00:54:39;16.45;;;10.60;;
33268;SDS011;19640;50.944;5.260;2022-11-15T00:57:04;20.30;;;11.30;;
33268;SDS011;19640;50.944;5.260;2022-11-15T00:59:30;13.18;;;10.38;;
33268;SDS011;19640;50.944;5.260;2022-11-15T01:01:55;13.88;;;10.32;;
33268;SDS011;19640;50.944;5.260;2022-11-15T01:04:21;16.20;;;11.20;;
33268;SDS011;19640;50.944;5.260;2022-11-15T01:06:47;14.27;;;11.20;;
33268;SDS011;19640;50.944;5.260;2022-11-15T01:09:12;12.85;;;10.95;;
33268;SDS011;19640;50.944;5.260;2022-11-15T01:11:38;14.13;;;10.95;;
33268;SDS011;19640;50.944;5.260;2022-11-15T01:14:04;16.30;;;10.82;;
33268;SDS011;19640;50.944;5.260;2022-11-15T01:16:30;13.73;;;11.18;;
33268;SDS011;19640;50.944;5.260;2022-11-15T01:18:56;12.35;;;10.68;;
33268;SDS011;19640;50.944;5.260;2022-11-15T01:21:21;15.90;;;11.13;;
33268;SDS011;19640;50.944;5.260;2022-11-15T01:23:47;14.23;;;10.75;;
33268;SDS011;19640;50.944;5.260;2022-11-15T01:26:13;15.10;;;10.50;;
33268;SDS011;19640;50.944;5.260;2022-11-15T01:28:40;16.13;;;11.27;;
33268;SDS011;19640;50.944;5.260;2022-11-15T01:31:09;13.85;;;10.73;;
33268;SDS011;19640;50.944;5.260;2022-11-15T01:33:38;13.73;;;11.02;;
33268;SDS011;19640;50.944;5.260;2022-11-15T01:36:04;16.08;;;10.52;;
33268;SDS011;19640;50.944;5.260;2022-11-15T01:38:31;13.43;;;10.15;;
33268;SDS011;19640;50.944;5.260;2022-11-15T01:40:56;12.02;;;10.75;;
33268;SDS011;19640;50.944;5.260;2022-11-15T01:43:23;12.25;;;9.80;;
33268;SDS011;19640;50.944;5.260;2022-11-15T01:45:50;15.07;;;10.48;;
33268;SDS011;19640;50.944;5.260;2022-11-15T01:48:21;13.60;;;10.48;;
33268;SDS011;19640;50.944;5.260;2022-11-15T01:50:47;15.10;;;10.75;;
33268;SDS011;19640;50.944;5.260;2022-11-15T01:53:14;16.10;;;10.55;;
33268;SDS011;19640;50.944;5.260;2022-11-15T01:55:40;13.32;;;10.18;;
33268;SDS011;19640;50.944;5.260;2022-11-15T01:58:06;14.63;;;11.25;;
33268;SDS011;19640;50.944;5.260;2022-11-15T02:00:32;17.00;;;11.63;;
33268;SDS011;19640;50.944;5.260;2022-11-15T02:02:58;13.15;;;9.93;;
33268;SDS011;19640;50.944;5.260;2022-11-15T02:05:24;13.98;;;10.60;;
33268;SDS011;19640;50.944;5.260;2022-11-15T02:07:50;12.93;;;10.90;;
33268;SDS011;19640;50.944;5.260;2022-11-15T02:10:25;11.88;;;10.05;;
33268;SDS011;19640;50.944;5.260;2022-11-15T02:12:50;13.20;;;9.85;;
33268;SDS011;19640;50.944;5.260;2022-11-15T02:15:17;14.07;;;11.38;;
33268;SDS011;19640;50.944;5.260;2022-11-15T02:38:08;12.00;;;9.30;;
33268;SDS011;19640;50.944;5.260;2022-11-15T02:41:01;10.18;;;9.18;;
33268;SDS011;19640;50.944;5.260;2022-11-15T02:44:12;10.63;;;9.52;;
33268;SDS011;19640;50.944;5.260;2022-11-15T02:46:40;13.30;;;9.15;;
33268;SDS011;19640;50.944;5.260;2022-11-15T02:49:29;14.95;;;9.57;;
33268;SDS011;19640;50.944;5.260;2022-11-15T02:51:57;10.48;;;9.38;;
33268;SDS011;19640;50.944;5.260;2022-11-15T02:54:25;15.63;;;9.73;;
33268;SDS011;19640;50.944;5.260;2022-11-15T02:56:54;10.18;;;8.57;;
33268;SDS011;19640;50.944;5.260;2022-11-15T02:59:30;19.08;;;9.25;;
33268;SDS011;19640;50.944;5.260;2022-11-15T03:02:29;10.75;;;9.68;;
33268;SDS011;19640;50.944;5.260;2022-11-15T03:05:15;12.40;;;9.88;;
33268;SDS011;19640;50.944;5.260;2022-11-15T03:07:57;12.88;;;9.60;;
33268;SDS011;19640;50.944;5.260;2022-11-15T03:10:26;14.17;;;10.57;;
33268;SDS011;19640;50.944;5.260;2022-11-15T03:13:11;12.90;;;9.60;;
33268;SDS011;19640;50.944;5.260;2022-11-15T03:16:03;14.10;;;10.25;;
33268;SDS011;19640;50.944;5.260;2022-11-15T03:18:40;14.93;;;10.52;;
33268;SDS011;19640;50.944;5.260;2022-11-15T03:21:08;16.63;;;10.88;;
33268;SDS011;19640;50.944;5.260;2022-11-15T03:23:36;12.48;;;10.18;;
33268;SDS011;19640;50.944;5.260;2022-11-15T03:26:03;12.40;;;10.60;;
33268;SDS011;19640;50.944;5.260;2022-11-15T03:28:35;13.07;;;10.85;;
33268;SDS011;19640;50.944;5.260;2022-11-15T03:31:11;14.60;;;10.35;;
33268;SDS011;19640;50.944;5.260;2022-11-15T03:33:58;14.52;;;9.90;;
33268;SDS011;19640;50.944;5.260;2022-11-15T03:36:26;18.83;;;11.10;;
33268;SDS011;19640;50.944;5.260;2022-11-15T03:38:56;15.85;;;10.57;;
33268;SDS011;19640;50.944;5.260;2022-11-15T03:41:32;12.75;;;9.88;;
33268;SDS011;19640;50.944;5.260;2022-11-15T03:44:19;15.35;;;10.95;;
33268;SDS011;19640;50.944;5.260;2022-11-15T03:49:44;13.20;;;11.00;;
33268;SDS011;19640;50.944;5.260;2022-11-15T03:52:16;11.25;;;10.05;;
33268;SDS011;19640;50.944;5.260;2022-11-15T03:54:47;13.02;;;9.43;;
33268;SDS011;19640;50.944;5.260;2022-11-15T03:57:18;11.18;;;9.95;;
33268;SDS011;19640;50.944;5.260;2022-11-15T03:59:43;10.20;;;9.23;;
33268;SDS011;19640;50.944;5.260;2022-11-15T04:02:09;10.63;;;9.50;;
33268;SDS011;19640;50.944;5.260;2022-11-15T04:04:34;13.65;;;10.10;;
33268;SDS011;19640;50.944;5.260;2022-11-15T04:07:00;10.40;;;9.25;;
33268;SDS011;19640;50.944;5.260;2022-11-15T04:09:26;19.98;;;10.23;;
33268;SDS011;19640;50.944;5.260;2022-11-15T04:11:51;11.27;;;9.43;;
33268;SDS011;19640;50.944;5.260;2022-11-15T04:14:17;12.85;;;9.55;;
33268;SDS011;19640;50.944;5.260;2022-11-15T04:16:42;11.65;;;8.85;;
33268;SDS011;19640;50.944;5.260;2022-11-15T04:19:08;11.93;;;8.85;;
33268;SDS011;19640;50.944;5.260;2022-11-15T04:21:52;11.43;;;9.35;;
33268;SDS011;19640;50.944;5.260;2022-11-15T04:24:36;10.98;;;8.15;;
33268;SDS011;19640;50.944;5.260;2022-11-15T04:27:02;10.77;;;9.02;;
33268;SDS011;19640;50.944;5.260;2022-11-15T04:29:27;9.50;;;8.18;;
33268;SDS011;19640;50.944;5.260;2022-11-15T04:32:02;11.52;;;8.48;;
33268;SDS011;19640;50.944;5.260;2022-11-15T04:34:29;10.57;;;8.93;;
33268;SDS011;19640;50.944;5.260;2022-11-15T04:36:55;9.48;;;8.57;;
33268;SDS011;19640;50.944;5.260;2022-11-15T04:39:41;11.10;;;9.52;;
33268;SDS011;19640;50.944;5.260;2022-11-15T04:42:07;10.40;;;9.27;;
33268;SDS011;19640;50.944;5.260;2022-11-15T04:44:34;10.48;;;9.40;;
33268;SDS011;19640;50.944;5.260;2022-11-15T04:47:00;15.60;;;9.55;;
33268;SDS011;19640;50.944;5.260;2022-11-15T04:49:26;11.43;;;10.23;;
33268;SDS011;19640;50.944;5.260;2022-11-15T04:51:51;12.40;;;8.80;;
33268;SDS011;19640;50.944;5.260;2022-11-15T04:54:17;11.32;;;9.68;;
33268;SDS011;19640;50.944;5.260;2022-11-15T04:56:42;12.23;;;8.93;;
33268;SDS011;19640;50.944;5.260;2022-11-15T04:59:08;12.80;;;8.13;;
33268;SDS011;19640;50.944;5.260;2022-11-15T05:01:34;8.82;;;7.93;;
33268;SDS011;19640;50.944;5.260;2022-11-15T05:03:59;7.28;;;6.55;;
33268;SDS011;19640;50.944;5.260;2022-11-15T05:06:43;7.18;;;4.65;;
33268;SDS011;19640;50.944;5.260;2022-11-15T05:09:09;7.05;;;5.55;;
33268;SDS011;19640;50.944;5.260;2022-11-15T05:11:35;7.88;;;5.32;;
33268;SDS011;19640;50.944;5.260;2022-11-15T05:14:01;5.28;;;4.60;;
33268;SDS011;19640;50.944;5.260;2022-11-15T05:16:26;5.05;;;4.47;;
33268;SDS011;19640;50.944;5.260;2022-11-15T05:18:53;5.55;;;3.90;;
33268;SDS011;19640;50.944;5.260;2022-11-15T05:21:19;9.20;;;4.45;;
33268;SDS011;19640;50.944;5.260;2022-11-15T05:23:45;4.40;;;3.78;;
33268;SDS011;19640;50.944;5.260;2022-11-15T05:26:11;6.45;;;3.58;;
33268;SDS011;19640;50.944;5.260;2022-11-15T05:28:37;4.82;;;3.75;;
33268;SDS011;19640;50.944;5.260;2022-11-15T05:31:04;3.42;;;2.97;;
33268;SDS011;19640;50.944;5.260;2022-11-15T05:33:31;7.05;;;3.85;;
33268;SDS011;19640;50.944;5.260;2022-11-15T05:36:00;5.45;;;4.05;;
33268;SDS011;19640;50.944;5.260;2022-11-15T05:38:31;4.60;;;3.38;;
33268;SDS011;19640;50.944;5.260;2022-11-15T05:40:58;4.32;;;3.35;;
33268;SDS011;19640;50.944;5.260;2022-11-15T05:43:25;4.20;;;3.10;;
33268;SDS011;19640;50.944;5.260;2022-11-15T05:45:51;5.13;;;2.88;;
33268;SDS011;19640;50.944;5.260;2022-11-15T05:48:17;4.82;;;3.05;;
33268;SDS011;19640;50.944;5.260;2022-11-15T05:50:43;4.53;;;3.47;;
33268;SDS011;19640;50.944;5.260;2022-11-15T05:53:12;5.45;;;3.47;;
33268;SDS011;19640;50.944;5.260;2022-11-15T05:55:40;5.53;;;3.95;;
33268;SDS011;19640;50.944;5.260;2022-11-15T05:58:06;7.38;;;3.60;;
33268;SDS011;19640;50.944;5.260;2022-11-15T06:00:32;5.70;;;3.67;;
33268;SDS011;19640;50.944;5.260;2022-11-15T06:02:58;5.13;;;3.90;;
33268;SDS011;19640;50.944;5.260;2022-11-15T06:05:24;4.97;;;4.40;;
33268;SDS011;19640;50.944;5.260;2022-11-15T06:07:49;5.55;;;4.40;;
33268;SDS011;19640;50.944;5.260;2022-11-15T06:10:15;5.45;;;4.22;;
33268;SDS011;19640;50.944;5.260;2022-11-15T06:12:41;7.53;;;5.05;;
33268;SDS011;19640;50.944;5.260;2022-11-15T06:15:07;8.10;;;5.30;;
33268;SDS011;19640;50.944;5.260;2022-11-15T06:17:33;6.93;;;5.35;;
33268;SDS011;19640;50.944;5.260;2022-11-15T06:19:59;11.65;;;5.80;;
33268;SDS011;19640;50.944;5.260;2022-11-15T06:22:24;6.18;;;5.50;;
33268;SDS011;19640;50.944;5.260;2022-11-15T06:24:50;8.75;;;5.40;;
33268;SDS011;19640;50.944;5.260;2022-11-15T06:27:15;7.22;;;5.63;;
33268;SDS011;19640;50.944;5.260;2022-11-15T06:29:41;11.57;;;6.53;;
33268;SDS011;19640;50.944;5.260;2022-11-15T06:32:07;7.78;;;6.57;;
33268;SDS011;19640;50.944;5.260;2022-11-15T06:34:32;15.05;;;5.57;;
33268;SDS011;19640;50.944;5.260;2022-11-15T06:36:58;8.30;;;5.75;;
33268;SDS011;19640;50.944;5.260;2022-11-15T06:39:24;8.27;;;5.25;;
33268;SDS011;19640;50.944;5.260;2022-11-15T06:41:49;7.65;;;4.95;;
33268;SDS011;19640;50.944;5.260;2022-11-15T06:44:15;10.15;;;5.78;;
33268;SDS011;19640;50.944;5.260;2022-11-15T06:46:42;6.28;;;4.97;;
33268;SDS011;19640;50.944;5.260;2022-11-15T06:49:07;7.03;;;5.13;;
33268;SDS011;19640;50.944;5.260;2022-11-15T06:51:33;8.25;;;4.80;;
33268;SDS011;19640;50.944;5.260;2022-11-15T06:53:58;8.13;;;4.75;;
33268;SDS011;19640;50.944;5.260;2022-11-15T06:56:24;6.43;;;4.68;;
33268;SDS011;19640;50.944;5.260;2022-11-15T06:58:50;6.53;;;5.05;;
33268;SDS011;19640;50.944;5.260;2022-11-15T07:01:15;6.75;;;4.90;;
33268;SDS011;19640;50.944;5.260;2022-11-15T07:03:41;9.38;;;5.03;;
33268;SDS011;19640;50.944;5.260;2022-11-15T07:06:07;7.85;;;4.75;;
33268;SDS011;19640;50.944;5.260;2022-11-15T07:08:34;5.85;;;4.55;;
33268;SDS011;19640;50.944;5.260;2022-11-15T07:11:01;6.70;;;4.13;;
33268;SDS011;19640;50.944;5.260;2022-11-15T07:13:28;5.22;;;4.43;;
33268;SDS011;19640;50.944;5.260;2022-11-15T07:15:58;7.80;;;4.40;;
33268;SDS011;19640;50.944;5.260;2022-11-15T07:18:26;4.95;;;3.83;;
33268;SDS011;19640;50.944;5.260;2022-11-15T07:20:52;4.63;;;4.15;;
33268;SDS011;19640;50.944;5.260;2022-11-15T07:23:18;5.00;;;3.92;;
33268;SDS011;19640;50.944;5.260;2022-11-15T07:25:43;7.75;;;4.03;;
33268;SDS011;19640;50.944;5.260;2022-11-15T07:28:09;5.97;;;3.72;;
33268;SDS011;19640;50.944;5.260;2022-11-15T07:30:35;7.70;;;4.20;;
33268;SDS011;19640;50.944;5.260;2022-11-15T07:33:00;7.97;;;4.47;;
33268;SDS011;19640;50.944;5.260;2022-11-15T07:35:27;7.97;;;4.18;;
33268;SDS011;19640;50.944;5.260;2022-11-15T07:37:57;5.13;;;4.20;;
33268;SDS011;19640;50.944;5.260;2022-11-15T07:40:24;5.23;;;4.03;;
33268;SDS011;19640;50.944;5.260;2022-11-15T07:42:51;6.78;;;4.60;;
33268;SDS011;19640;50.944;5.260;2022-11-15T07:45:20;5.15;;;4.32;;
33268;SDS011;19640;50.944;5.260;2022-11-15T07:47:46;6.75;;;4.45;;
33268;SDS011;19640;50.944;5.260;2022-11-15T07:50:13;6.97;;;5.18;;
33268;SDS011;19640;50.944;5.260;2022-11-15T07:52:38;6.95;;;4.05;;
33268;SDS011;19640;50.944;5.260;2022-11-15T07:55:04;6.38;;;4.78;;
33268;SDS011;19640;50.944;5.260;2022-11-15T07:57:30;8.50;;;5.80;;
33268;SDS011;19640;50.944;5.260;2022-11-15T07:59:56;5.68;;;4.80;;
33268;SDS011;19640;50.944;5.260;2022-11-15T08:02:22;8.85;;;4.47;;
33268;SDS011;19640;50.944;5.260;2022-11-15T08:04:48;8.05;;;4.95;;
33268;SDS011;19640;50.944;5.260;2022-11-15T08:07:14;8.20;;;5.05;;
33268;SDS011;19640;50.944;5.260;2022-11-15T08:09:40;5.70;;;4.60;;
33268;SDS011;19640;50.944;5.260;2022-11-15T08:12:05;6.13;;;4.57;;
33268;SDS011;19640;50.944;5.260;2022-11-15T08:14:31;7.22;;;4.93;;
33268;SDS011;19640;50.944;5.260;2022-11-15T08:16:57;5.60;;;4.50;;
33268;SDS011;19640;50.944;5.260;2022-11-15T08:19:23;4.70;;;4.30;;
33268;SDS011;19640;50.944;5.260;2022-11-15T08:21:48;5.60;;;5.10;;
33268;SDS011;19640;50.944;5.260;2022-11-15T08:24:14;5.43;;;4.30;;
33268;SDS011;19640;50.944;5.260;2022-11-15T08:26:40;7.22;;;4.25;;
33268;SDS011;19640;50.944;5.260;2022-11-15T08:29:06;6.15;;;4.30;;
33268;SDS011;19640;50.944;5.260;2022-11-15T08:31:33;6.82;;;4.00;;
33268;SDS011;19640;50.944;5.260;2022-11-15T08:34:01;5.07;;;3.92;;
33268;SDS011;19640;50.944;5.260;2022-11-15T08:36:27;6.65;;;3.90;;
33268;SDS011;19640;50.944;5.260;2022-11-15T08:38:53;5.72;;;3.03;;
33268;SDS011;19640;50.944;5.260;2022-11-15T08:41:23;5.20;;;2.30;;
33268;SDS011;19640;50.944;5.260;2022-11-15T08:43:51;3.60;;;2.55;;
33268;SDS011;19640;50.944;5.260;2022-11-15T08:46:17;6.55;;;2.15;;
33268;SDS011;19640;50.944;5.260;2022-11-15T08:48:44;5.28;;;1.52;;
33268;SDS011;19640;50.944;5.260;2022-11-15T08:51:09;5.13;;;2.05;;
33268;SDS011;19640;50.944;5.260;2022-11-15T08:53:35;2.17;;;1.30;;
33268;SDS011;19640;50.944;5.260;2022-11-15T08:56:01;3.20;;;1.38;;
33268;SDS011;19640;50.944;5.260;2022-11-15T08:58:26;3.42;;;1.27;;
33268;SDS011;19640;50.944;5.260;2022-11-15T09:00:52;3.65;;;1.10;;
33268;SDS011;19640;50.944;5.260;2022-11-15T09:03:18;2.63;;;1.05;;
33268;SDS011;19640;50.944;5.260;2022-11-15T09:05:43;4.32;;;1.00;;
33268;SDS011;19640;50.944;5.260;2022-11-15T09:08:09;5.70;;;1.00;;
33268;SDS011;19640;50.944;5.260;2022-11-15T09:10:34;7.50;;;0.90;;
33268;SDS011;19640;50.944;5.260;2022-11-15T09:13:01;4.90;;;1.40;;
33268;SDS011;19640;50.944;5.260;2022-11-15T09:15:27;3.92;;;0.85;;
33268;SDS011;19640;50.944;5.260;2022-11-15T09:17:52;4.25;;;0.90;;
33268;SDS011;19640;50.944;5.260;2022-11-15T09:20:18;2.83;;;0.80;;
33268;SDS011;19640;50.944;5.260;2022-11-15T09:22:43;2.15;;;0.77;;
33268;SDS011;19640;50.944;5.260;2022-11-15T09:25:09;3.47;;;1.00;;
33268;SDS011;19640;50.944;5.260;2022-11-15T09:27:35;6.88;;;1.10;;
33268;SDS011;19640;50.944;5.260;2022-11-15T09:30:00;2.20;;;0.88;;
33268;SDS011;19640;50.944;5.260;2022-11-15T09:32:29;1.88;;;0.65;;
33268;SDS011;19640;50.944;5.260;2022-11-15T09:34:57;3.50;;;0.82;;
33268;SDS011;19640;50.944;5.260;2022-11-15T09:37:23;1.52;;;1.23;;
33268;SDS011;19640;50.944;5.260;2022-11-15T09:39:48;2.58;;;0.75;;
33268;SDS011;19640;50.944;5.260;2022-11-15T09:45:05;4.40;;;0.90;;
33268;SDS011;19640;50.944;5.260;2022-11-15T09:53:15;5.53;;;1.33;;
33268;SDS011;19640;50.944;5.260;2022-11-15T09:55:58;4.13;;;0.82;;
33268;SDS011;19640;50.944;5.260;2022-11-15T10:04:14;1.27;;;0.70;;
33268;SDS011;19640;50.944;5.260;2022-11-15T10:06:42;2.70;;;0.90;;
33268;SDS011;19640;50.944;5.260;2022-11-15T10:09:19;3.55;;;1.17;;
33268;SDS011;19640;50.944;5.260;2022-11-15T10:11:50;2.22;;;0.80;;
33268;SDS011;19640;50.944;5.260;2022-11-15T10:14:20;1.98;;;1.00;;
33268;SDS011;19640;50.944;5.260;2022-11-15T10:16:56;2.33;;;0.85;;
33268;SDS011;19640;50.944;5.260;2022-11-15T10:19:31;2.80;;;0.80;;
33268;SDS011;19640;50.944;5.260;2022-11-15T10:24:47;2.08;;;0.70;;
33268;SDS011;19640;50.944;5.260;2022-11-15T10:27:16;3.10;;;0.85;;
33268;SDS011;19640;50.944;5.260;2022-11-15T10:29:47;2.78;;;1.02;;
33268;SDS011;19640;50.944;5.260;2022-11-15T10:32:14;4.72;;;0.82;;
33268;SDS011;19640;50.944;5.260;2022-11-15T10:34:45;1.38;;;0.52;;
33268;SDS011;19640;50.944;5.260;2022-11-15T10:37:11;1.50;;;1.10;;
33268;SDS011;19640;50.944;5.260;2022-11-15T10:39:37;1.13;;;0.40;;
33268;SDS011;19640;50.944;5.260;2022-11-15T10:42:26;1.52;;;0.60;;
33268;SDS011;19640;50.944;5.260;2022-11-15T10:44:53;2.97;;;0.80;;
33268;SDS011;19640;50.944;5.260;2022-11-15T10:49:58;1.63;;;0.93;;
33268;SDS011;19640;50.944;5.260;2022-11-15T10:52:24;1.80;;;0.70;;
33268;SDS011;19640;50.944;5.260;2022-11-15T10:58:20;2.78;;;0.93;;
33268;SDS011;19640;50.944;5.260;2022-11-15T11:02:56;4.53;;;0.88;;
33268;SDS011;19640;50.944;5.260;2022-11-15T11:10:53;1.70;;;0.70;;
33268;SDS011;19640;50.944;5.260;2022-11-15T11:18:38;3.67;;;0.77;;
33268;SDS011;19640;50.944;5.260;2022-11-15T11:21:16;3.83;;;0.88;;
33268;SDS011;19640;50.944;5.260;2022-11-15T11:34:53;1.77;;;0.50;;
33268;SDS011;19640;50.944;5.260;2022-11-15T11:37:37;2.97;;;0.70;;
33268;SDS011;19640;50.944;5.260;2022-11-15T11:43:27;3.08;;;0.52;;
33268;SDS011;19640;50.944;5.260;2022-11-15T11:48:52;8.85;;;1.20;;
33268;SDS011;19640;50.944;5.260;2022-11-15T11:51:28;2.63;;;0.73;;
33268;SDS011;19640;50.944;5.260;2022-11-15T11:56:40;6.50;;;0.65;;
33268;SDS011;19640;50.944;5.260;2022-11-15T11:59:16;6.28;;;1.48;;
33268;SDS011;19640;50.944;5.260;2022-11-15T12:01:57;4.28;;;0.77;;
33268;SDS011;19640;50.944;5.260;2022-11-15T12:04:29;1.98;;;0.68;;
33268;SDS011;19640;50.944;5.260;2022-11-15T12:07:05;3.33;;;0.60;;
33268;SDS011;19640;50.944;5.260;2022-11-15T12:09:35;3.33;;;0.68;;
33268;SDS011;19640;50.944;5.260;2022-11-15T12:14:49;1.77;;;0.55;;
33268;SDS011;19640;50.944;5.260;2022-11-15T12:17:27;1.92;;;0.90;;
33268;SDS011;19640;50.944;5.260;2022-11-15T12:19:57;2.80;;;0.70;;
33268;SDS011;19640;50.944;5.260;2022-11-15T12:25:32;2.17;;;0.60;;
33268;SDS011;19640;50.944;5.260;2022-11-15T12:33:41;3.05;;;0.55;;
33268;SDS011;19640;50.944;5.260;2022-11-15T12:38:52;2.25;;;0.80;;
33268;SDS011;19640;50.944;5.260;2022-11-15T12:41:22;2.88;;;0.77;;
33268;SDS011;19640;50.944;5.260;2022-11-15T12:43:49;2.72;;;0.80;;
33268;SDS011;19640;50.944;5.260;2022-11-15T12:46:20;5.47;;;1.00;;
33268;SDS011;19640;50.944;5.260;2022-11-15T12:48:48;2.83;;;0.98;;
33268;SDS011;19640;50.944;5.260;2022-11-15T12:51:16;4.00;;;0.80;;
33268;SDS011;19640;50.944;5.260;2022-11-15T12:53:44;2.95;;;0.75;;
33268;SDS011;19640;50.944;5.260;2022-11-15T12:58:45;4.43;;;0.75;;
33268;SDS011;19640;50.944;5.260;2022-11-15T13:09:49;3.30;;;0.70;;
33268;SDS011;19640;50.944;5.260;2022-11-15T13:15:01;1.88;;;0.50;;
33268;SDS011;19640;50.944;5.260;2022-11-15T13:17:51;2.25;;;1.17;;
33268;SDS011;19640;50.944;5.260;2022-11-15T13:20:31;2.63;;;0.70;;
33268;SDS011;19640;50.944;5.260;2022-11-15T13:28:35;5.40;;;0.70;;
33268;SDS011;19640;50.944;5.260;2022-11-15T13:34:03;3.78;;;0.70;;
33268;SDS011;19640;50.944;5.260;2022-11-15T13:36:49;2.03;;;0.70;;
33268;SDS011;19640;50.944;5.260;2022-11-15T13:41:50;3.20;;;0.93;;
33268;SDS011;19640;50.944;5.260;2022-11-15T13:44:20;3.60;;;0.70;;
33268;SDS011;19640;50.944;5.260;2022-11-15T13:52:21;1.23;;;0.60;;
33268;SDS011;19640;50.944;5.260;2022-11-15T13:54:57;1.50;;;0.60;;
33268;SDS011;19640;50.944;5.260;2022-11-15T13:57:30;1.30;;;0.43;;
33268;SDS011;19640;50.944;5.260;2022-11-15T14:00:22;3.72;;;0.80;;
33268;SDS011;19640;50.944;5.260;2022-11-15T14:02:51;1.65;;;0.80;;
33268;SDS011;19640;50.944;5.260;2022-11-15T14:05:19;1.40;;;0.60;;
33268;SDS011;19640;50.944;5.260;2022-11-15T14:10:41;1.70;;;0.70;;
33268;SDS011;19640;50.944;5.260;2022-11-15T14:14:02;1.60;;;0.77;;
33268;SDS011;19640;50.944;5.260;2022-11-15T14:16:19;2.63;;;0.77;;
33268;SDS011;19640;50.944;5.260;2022-11-15T14:18:52;2.90;;;0.77;;
33268;SDS011;19640;50.944;5.260;2022-11-15T14:21:18;1.48;;;0.63;;
33268;SDS011;19640;50.944;5.260;2022-11-15T14:23:45;1.00;;;0.60;;
33268;SDS011;19640;50.944;5.260;2022-11-15T14:31:50;0.50;;;0.43;;
33268;SDS011;19640;50.944;5.260;2022-11-15T14:34:16;2.35;;;0.65;;
33268;SDS011;19640;50.944;5.260;2022-11-15T14:36:42;2.30;;;0.70;;
33268;SDS011;19640;50.944;5.260;2022-11-15T14:39:07;1.00;;;0.70;;
33268;SDS011;19640;50.944;5.260;2022-11-15T14:41:36;3.03;;;1.10;;
33268;SDS011;19640;50.944;5.260;2022-11-15T14:46:31;3.20;;;0.80;;
33268;SDS011;19640;50.944;5.260;2022-11-15T14:48:56;1.13;;;0.70;;
33268;SDS011;19640;50.944;5.260;2022-11-15T14:51:22;1.52;;;0.70;;
33268;SDS011;19640;50.944;5.260;2022-11-15T14:53:48;1.80;;;0.75;;
33268;SDS011;19640;50.944;5.260;2022-11-15T14:56:14;4.63;;;0.73;;
33268;SDS011;19640;50.944;5.260;2022-11-15T14:58:41;2.65;;;1.92;;
33268;SDS011;19640;50.944;5.260;2022-11-15T15:01:21;2.40;;;0.70;;
33268;SDS011;19640;50.944;5.260;2022-11-15T15:03:48;1.45;;;1.15;;
33268;SDS011;19640;50.944;5.260;2022-11-15T15:06:16;3.42;;;0.95;;
33268;SDS011;19640;50.944;5.260;2022-11-15T15:08:42;1.20;;;0.75;;
33268;SDS011;19640;50.944;5.260;2022-11-15T15:11:12;1.83;;;0.85;;
33268;SDS011;19640;50.944;5.260;2022-11-15T15:13:40;1.92;;;0.90;;
33268;SDS011;19640;50.944;5.260;2022-11-15T15:16:06;3.83;;;0.80;;
33268;SDS011;19640;50.944;5.260;2022-11-15T15:18:32;0.88;;;0.70;;
33268;SDS011;19640;50.944;5.260;2022-11-15T15:20:58;1.60;;;0.90;;
33268;SDS011;19640;50.944;5.260;2022-11-15T15:23:31;1.98;;;1.10;;
33268;SDS011;19640;50.944;5.260;2022-11-15T15:25:57;1.27;;;1.17;;
33268;SDS011;19640;50.944;5.260;2022-11-15T15:28:23;3.15;;;2.00;;
33268;SDS011;19640;50.944;5.260;2022-11-15T15:30:49;5.40;;;1.90;;
33268;SDS011;19640;50.944;5.260;2022-11-15T15:33:15;3.05;;;0.95;;
33268;SDS011;19640;50.944;5.260;2022-11-15T15:35:41;1.80;;;0.93;;
33268;SDS011;19640;50.944;5.260;2022-11-15T15:38:16;1.38;;;0.80;;
33268;SDS011;19640;50.944;5.260;2022-11-15T15:40:41;2.25;;;1.10;;
33268;SDS011;19640;50.944;5.260;2022-11-15T15:43:07;2.63;;;1.23;;
33268;SDS011;19640;50.944;5.260;2022-11-15T15:45:34;1.33;;;0.90;;
33268;SDS011;19640;50.944;5.260;2022-11-15T15:48:05;2.50;;;1.05;;
33268;SDS011;19640;50.944;5.260;2022-11-15T15:50:33;1.33;;;0.93;;
33268;SDS011;19640;50.944;5.260;2022-11-15T15:53:00;2.20;;;1.05;;
33268;SDS011;19640;50.944;5.260;2022-11-15T15:55:27;2.83;;;1.00;;
33268;SDS011;19640;50.944;5.260;2022-11-15T15:57:54;8.27;;;1.20;;
33268;SDS011;19640;50.944;5.260;2022-11-15T16:00:20;1.10;;;0.90;;
33268;SDS011;19640;50.944;5.260;2022-11-15T16:02:48;3.35;;;1.20;;
33268;SDS011;19640;50.944;5.260;2022-11-15T16:05:13;2.05;;;1.30;;
33268;SDS011;19640;50.944;5.260;2022-11-15T16:07:39;2.75;;;1.30;;
33268;SDS011;19640;50.944;5.260;2022-11-15T16:10:14;2.92;;;1.33;;
33268;SDS011;19640;50.944;5.260;2022-11-15T16:12:44;2.50;;;1.42;;
33268;SDS011;19640;50.944;5.260;2022-11-15T16:15:10;2.08;;;1.40;;
33268;SDS011;19640;50.944;5.260;2022-11-15T16:17:38;2.00;;;1.20;;
33268;SDS011;19640;50.944;5.260;2022-11-15T16:20:09;2.65;;;1.33;;
33268;SDS011;19640;50.944;5.260;2022-11-15T16:22:46;1.75;;;1.50;;
33268;SDS011;19640;50.944;5.260;2022-11-15T16:25:12;2.35;;;1.60;;
33268;SDS011;19640;50.944;5.260;2022-11-15T16:27:38;2.63;;;1.70;;
33268;SDS011;19640;50.944;5.260;2022-11-15T16:30:12;2.85;;;1.70;;
33268;SDS011;19640;50.944;5.260;2022-11-15T16:32:40;4.47;;;1.33;;
33268;SDS011;19640;50.944;5.260;2022-11-15T16:35:06;4.93;;;1.75;;
33268;SDS011;19640;50.944;5.260;2022-11-15T16:37:35;4.22;;;1.80;;
33268;SDS011;19640;50.944;5.260;2022-11-15T16:40:01;4.10;;;1.90;;
33268;SDS011;19640;50.944;5.260;2022-11-15T16:42:26;2.85;;;2.00;;
33268;SDS011;19640;50.944;5.260;2022-11-15T16:44:52;8.18;;;2.10;;
33268;SDS011;19640;50.944;5.260;2022-11-15T16:47:18;2.53;;;2.10;;
33268;SDS011;19640;50.944;5.260;2022-11-15T16:49:44;5.68;;;2.20;;
33268;SDS011;19640;50.944;5.260;2022-11-15T16:52:10;2.47;;;2.20;;
33268;SDS011;19640;50.944;5.260;2022-11-15T16:54:36;3.15;;;2.28;;
33268;SDS011;19640;50.944;5.260;2022-11-15T16:57:02;4.97;;;2.42;;
33268;SDS011;19640;50.944;5.260;2022-11-15T16:59:27;3.33;;;2.67;;
33268;SDS011;19640;50.944;5.260;2022-11-15T17:01:54;3.88;;;3.00;;
33268;SDS011;19640;50.944;5.260;2022-11-15T17:04:20;3.55;;;2.70;;